Time;durP1;ratioP1;P1;durP2;ratioP2;P2;SDS_P1;SDS_P2;PMS_P1;PMS_P2;Temp;Humidity;BMP_temperature;BMP_pressure;BME280_temperature;BME280_humidity;BME280_pressure;Samples;Min_cycle;Max_cycle;Signal;HPM_P1;HPM_P2
2022/04/25 00:01:31;;;;;;;17.42;8.23;;;;;;;10.25;100.00;100433.06;5068906;28;20045;-73
2022/04/25 00:03:58;;;;;;;17.70;7.78;;;;;;;10.31;100.00;100429.50;5064369;28;20114;-74
2022/04/25 00:06:24;;;;;;;17.13;8.02;;;;;;;10.37;100.00;100435.41;5067023;28;20048;-74
2022/04/25 00:08:51;;;;;;;16.75;7.30;;;;;;;10.42;100.00;100432.19;5065762;28;20048;-73
2022/04/25 00:11:17;;;;;;;18.27;8.85;;;;;;;10.48;100.00;100433.34;5062636;28;20056;-74
2022/04/25 00:13:44;;;;;;;17.45;7.65;;;;;;;10.50;100.00;100429.00;5065423;28;20198;-73
2022/04/25 00:16:11;;;;;;;15.75;7.90;;;;;;;10.59;100.00;100427.78;5064409;28;20044;-73
2022/04/25 00:18:37;;;;;;;17.75;8.85;;;;;;;10.53;100.00;100424.63;5059200;28;20053;-72
2022/04/25 00:21:04;;;;;;;16.48;8.27;;;;;;;10.55;100.00;100425.00;5068313;28;20059;-73
2022/04/25 00:23:30;;;;;;;19.17;8.23;;;;;;;10.57;100.00;100423.41;5065551;28;20424;-72
2022/04/25 00:25:57;;;;;;;20.35;9.00;;;;;;;10.62;100.00;100424.19;5058302;28;20063;-75
2022/04/25 00:28:24;;;;;;;16.40;8.30;;;;;;;10.59;100.00;100420.25;5065004;28;20048;-73
2022/04/25 00:30:50;;;;;;;20.02;9.32;;;;;;;10.57;100.00;100415.13;5059104;28;20449;-73
2022/04/25 00:33:17;;;;;;;19.88;9.30;;;;;;;10.59;100.00;100414.72;5060851;28;20066;-74
2022/04/25 00:35:44;;;;;;;21.55;10.55;;;;;;;10.65;100.00;100420.59;5064410;28;20473;-74
2022/04/25 00:38:10;;;;;;;22.15;10.48;;;;;;;10.67;100.00;100413.50;5058807;28;20151;-73
2022/04/25 00:40:37;;;;;;;23.65;9.82;;;;;;;10.64;100.00;100419.84;5060470;28;20151;-73
2022/04/25 00:43:04;;;;;;;19.92;9.90;;;;;;;10.59;100.00;100411.94;5057406;28;20060;-75
2022/04/25 00:45:36;;;;;;;19.33;9.60;;;;;;;10.64;100.00;100413.50;5064218;28;20052;-76
2022/04/25 00:48:03;;;;;;;20.23;8.68;;;;;;;10.57;100.00;100394.97;5067948;28;20102;-74
2022/04/25 00:50:31;;;;;;;19.77;7.97;;;;;;;10.60;100.00;100408.00;5071491;28;20147;-73
2022/04/25 00:52:58;;;;;;;19.05;8.35;;;;;;;10.64;100.00;100402.44;5071752;28;20053;-73
2022/04/25 00:55:25;;;;;;;16.88;7.68;;;;;;;10.58;100.00;100404.84;5067071;28;20068;-75
2022/04/25 00:57:54;;;;;;;15.57;7.57;;;;;;;10.57;100.00;100402.47;5070626;28;20113;-73
2022/04/25 01:00:21;;;;;;;15.50;7.57;;;;;;;10.54;100.00;100393.78;5066744;28;20044;-73
2022/04/25 01:02:48;;;;;;;18.80;8.38;;;;;;;10.60;100.00;100396.16;5064697;28;20156;-73
2022/04/25 01:05:14;;;;;;;15.20;7.97;;;;;;;10.53;100.00;100386.69;5065449;28;20539;-75
2022/04/25 01:07:41;;;;;;;18.55;9.20;;;;;;;10.56;100.00;100390.63;5065855;28;20064;-74
2022/04/25 01:10:10;;;;;;;16.45;8.25;;;;;;;10.57;100.00;100384.69;5061732;28;20131;-74
2022/04/25 01:12:36;;;;;;;15.65;7.80;;;;;;;10.61;100.00;100378.34;5058688;28;20502;-75
2022/04/25 01:15:10;;;;;;;17.23;8.00;;;;;;;10.62;100.00;100368.84;5057420;28;20088;-74
2022/04/25 01:17:38;;;;;;;15.02;7.60;;;;;;;10.59;100.00;100362.16;5059293;28;20683;-73
2022/04/25 01:20:07;;;;;;;15.00;7.35;;;;;;;10.57;100.00;100365.31;5069824;28;20139;-74
2022/04/25 01:22:44;;;;;;;16.40;7.50;;;;;;;10.61;100.00;100367.28;5058841;28;20135;-73
2022/04/25 01:27:56;;;;;;;16.48;7.60;;;;;;;10.61;100.00;100365.31;5064404;28;20131;-74
2022/04/25 01:30:22;;;;;;;14.05;7.32;;;;;;;10.54;100.00;100365.34;5066569;28;20043;-73
2022/04/25 01:32:49;;;;;;;16.60;8.40;;;;;;;10.52;100.00;100358.66;5062357;28;20572;-72
2022/04/25 01:35:15;;;;;;;15.45;6.72;;;;;;;10.55;100.00;100358.63;5063922;28;20170;-73
2022/04/25 01:37:42;;;;;;;17.05;7.45;;;;;;;10.54;100.00;100346.00;5073576;28;20080;-74
2022/04/25 01:40:09;;;;;;;15.38;7.47;;;;;;;10.56;100.00;100345.59;5069350;28;20057;-74
2022/04/25 01:42:36;;;;;;;15.85;8.45;;;;;;;10.59;100.00;100353.06;5063125;28;20143;-75
2022/04/25 01:45:03;;;;;;;19.90;9.38;;;;;;;10.57;100.00;100355.44;5070496;28;20044;-72
2022/04/25 01:47:29;;;;;;;17.52;9.43;;;;;;;10.59;100.00;100358.63;5074407;28;20054;-73
2022/04/25 01:49:56;;;;;;;19.45;9.18;;;;;;;10.64;100.00;100360.94;5065570;28;20052;-73
2022/04/25 01:52:29;;;;;;;19.58;9.93;;;;;;;10.71;100.00;100371.94;5067480;28;20140;-72
2022/04/25 01:54:56;;;;;;;15.70;8.00;;;;;;;10.67;100.00;100374.75;5080959;28;20521;-75
2022/04/25 01:57:23;;;;;;;18.80;8.18;;;;;;;10.48;100.00;100372.50;5067510;28;20159;-73
2022/04/25 01:59:49;;;;;;;14.98;7.53;;;;;;;10.48;100.00;100395.44;5068744;28;20667;-74
2022/04/25 02:02:16;;;;;;;12.10;5.20;;;;;;;10.34;100.00;100384.44;5070682;28;20072;-72
2022/04/25 02:04:43;;;;;;;17.85;8.93;;;;;;;10.39;100.00;100384.00;5065339;28;20049;-74
2022/04/25 02:07:10;;;;;;;18.58;8.60;;;;;;;10.35;100.00;100386.00;5066205;28;20067;-72
2022/04/25 02:09:38;;;;;;;16.00;7.35;;;;;;;10.26;100.00;100388.41;5088030;28;20041;-73
2022/04/25 02:12:06;;;;;;;19.17;8.50;;;;;;;10.24;100.00;100390.81;5064435;28;20849;-73
2022/04/25 02:14:32;;;;;;;16.73;8.63;;;;;;;10.25;100.00;100384.09;5079634;28;20066;-73
2022/04/25 02:17:00;;;;;;;16.70;8.10;;;;;;;10.22;100.00;100382.13;5067482;28;20143;-74
2022/04/25 02:19:28;;;;;;;15.93;8.20;;;;;;;10.27;100.00;100387.22;5067054;28;20563;-75
2022/04/25 02:21:56;;;;;;;18.33;8.32;;;;;;;10.29;100.00;100389.59;5066690;28;20055;-75
2022/04/25 02:24:23;;;;;;;16.75;8.25;;;;;;;10.33;100.00;100382.09;5064408;28;20079;-75
2022/04/25 02:26:50;;;;;;;21.58;10.18;;;;;;;10.43;100.00;100384.78;5073545;28;20432;-72
2022/04/25 02:29:20;;;;;;;19.63;10.18;;;;;;;10.44;100.00;100383.56;5075090;28;20451;-73
2022/04/25 02:31:46;;;;;;;20.88;10.65;;;;;;;10.52;100.00;100376.03;5069703;28;20045;-75
2022/04/25 02:34:13;;;;;;;21.63;9.98;;;;;;;10.59;100.00;100381.50;5062991;28;20047;-74
2022/04/25 02:36:40;;;;;;;20.20;10.48;;;;;;;10.67;100.00;100382.25;5068626;28;20771;-73
2022/04/25 02:39:06;;;;;;;19.58;10.05;;;;;;;10.72;100.00;100384.59;5069212;28;20049;-73
2022/04/25 02:41:33;;;;;;;21.52;10.13;;;;;;;10.76;100.00;100380.59;5069147;28;20052;-74
2022/04/25 02:43:59;;;;;;;23.42;10.93;;;;;;;10.78;100.00;100378.22;5074128;28;20774;-72
2022/04/25 02:46:26;;;;;;;21.23;9.63;;;;;;;10.77;100.00;100375.88;5059090;28;20436;-72
2022/04/25 02:48:53;;;;;;;17.88;8.80;;;;;;;10.80;100.00;100381.34;5064336;28;21664;-74
2022/04/25 02:51:19;;;;;;;19.45;8.20;;;;;;;10.87;100.00;100375.78;5071119;28;20048;-73
2022/04/25 02:53:46;;;;;;;18.80;8.32;;;;;;;10.86;100.00;100376.97;5063073;28;20167;-74
2022/04/25 02:56:13;;;;;;;15.55;8.02;;;;;;;10.80;100.00;100377.81;5067602;28;20054;-73
2022/04/25 02:58:40;;;;;;;16.33;7.90;;;;;;;10.79;100.00;100376.22;5073830;28;20051;-73
2022/04/25 03:01:08;;;;;;;16.45;8.25;;;;;;;10.81;100.00;100376.63;5068467;28;20063;-73
2022/04/25 03:03:36;;;;;;;18.85;9.07;;;;;;;10.85;100.00;100372.63;5068055;28;20114;-75
2022/04/25 03:06:05;;;;;;;17.23;7.72;;;;;;;10.87;100.00;100373.00;5064705;28;20080;-73
2022/04/25 03:08:34;;;;;;;15.65;7.10;;;;;;;10.87;100.00;100369.47;5070110;28;20135;-76
2022/04/25 03:11:04;;;;;;;17.30;7.85;;;;;;;10.80;100.00;100366.75;5067791;28;20064;-73
2022/04/25 03:13:31;;;;;;;16.73;7.90;;;;;;;10.81;100.00;100362.78;5070293;28;20052;-73
2022/04/25 03:15:58;;;;;;;20.25;8.00;;;;;;;10.86;100.00;100368.66;5068763;28;20053;-75
2022/04/25 03:18:24;;;;;;;17.60;8.63;;;;;;;10.85;100.00;100358.81;5076495;28;20048;-74
2022/04/25 03:20:51;;;;;;;18.70;9.20;;;;;;;10.93;100.00;100357.53;5073785;28;20054;-73
2022/04/25 03:23:23;;;;;;;20.67;9.63;;;;;;;10.89;100.00;100356.78;5066818;28;20052;-75
2022/04/25 03:25:50;;;;;;;22.85;11.35;;;;;;;10.92;100.00;100360.72;5064200;28;20049;-74
2022/04/25 03:28:17;;;;;;;23.08;11.32;;;;;;;10.95;100.00;100354.38;5069846;28;20143;-73
2022/04/25 03:30:44;;;;;;;19.20;10.15;;;;;;;10.90;100.00;100358.34;5073746;28;20075;-73
2022/04/25 03:33:11;;;;;;;24.70;13.35;;;;;;;10.94;100.00;100353.59;5065999;28;20056;-72
2022/04/25 03:35:41;;;;;;;23.85;12.77;;;;;;;10.98;100.00;100364.63;5075228;28;20053;-72
2022/04/25 03:38:08;;;;;;;24.17;12.88;;;;;;;10.99;100.00;100357.88;5067033;28;20049;-73
2022/04/25 03:40:36;;;;;;;24.80;12.60;;;;;;;10.98;100.00;100359.09;5071418;28;20092;-73
2022/04/25 03:43:07;;;;;;;24.88;14.23;;;;;;;10.97;100.00;100354.75;5067262;28;20059;-73
2022/04/25 03:45:34;;;;;;;25.20;13.93;;;;;;;10.96;100.00;100367.00;5072347;28;20800;-73
2022/04/25 03:48:02;;;;;;;26.17;15.07;;;;;;;10.95;100.00;100365.44;5071848;28;20051;-73
2022/04/25 03:50:31;;;;;;;26.10;15.13;;;;;;;10.93;100.00;100365.06;5068902;28;20067;-75
2022/04/25 03:53:08;;;;;;;24.52;14.05;;;;;;;10.92;100.00;100369.00;5075335;28;20055;-73
2022/04/25 03:58:21;;;;;;;24.95;12.25;;;;;;;10.93;100.00;100367.84;5063630;28;20135;-77
2022/04/25 04:00:48;;;;;;;25.00;13.60;;;;;;;10.88;100.00;100365.50;5070067;28;20052;-72
2022/04/25 04:03:17;;;;;;;26.33;13.57;;;;;;;10.92;100.00;100369.81;5071019;28;20067;-72
2022/04/25 04:05:45;;;;;;;28.02;13.05;;;;;;;10.87;100.00;100372.22;5072814;28;20060;-72
2022/04/25 04:08:12;;;;;;;22.33;11.90;;;;;;;10.86;100.00;100376.97;5072513;28;20076;-72
2022/04/25 04:10:39;;;;;;;27.27;14.48;;;;;;;10.88;100.00;100388.44;5065001;28;20050;-72
2022/04/25 04:13:05;;;;;;;26.27;13.18;;;;;;;10.89;100.00;100391.97;5069379;28;20048;-73
2022/04/25 04:15:32;;;;;;;27.75;14.27;;;;;;;10.93;100.00;100395.53;5067413;28;20052;-73
2022/04/25 04:17:59;;;;;;;28.38;15.38;;;;;;;10.89;100.00;100395.53;5077654;28;20093;-73
2022/04/25 04:20:25;;;;;;;26.48;14.50;;;;;;;10.91;100.00;100398.69;5068222;28;20434;-74
2022/04/25 04:22:52;;;;;;;26.45;12.90;;;;;;;10.91;100.00;100403.44;5067708;28;20497;-71
2022/04/25 04:25:20;;;;;;;26.85;13.15;;;;;;;10.92;100.00;100403.03;5066555;28;20779;-72
2022/04/25 04:27:48;;;;;;;27.27;14.85;;;;;;;10.91;100.00;100406.19;5066869;28;20051;-73
2022/04/25 04:30:15;;;;;;;26.13;14.43;;;;;;;10.91;100.00;100414.50;5075129;28;20147;-72
2022/04/25 04:32:42;;;;;;;24.70;13.55;;;;;;;10.95;100.00;100416.06;5070488;28;20102;-73
2022/04/25 04:35:13;;;;;;;22.67;11.93;;;;;;;10.94;100.00;100419.22;5068790;28;20076;-75
2022/04/25 04:37:40;;;;;;;24.65;12.82;;;;;;;10.89;100.00;100414.91;5068647;28;20196;-73
2022/04/25 04:42:54;;;;;;;23.08;12.05;;;;;;;10.88;100.00;100420.84;5077437;28;20071;-73
2022/04/25 04:45:21;;;;;;;25.13;13.35;;;;;;;10.88;100.00;100415.31;5072471;28;20127;-73
2022/04/25 04:47:47;;;;;;;23.48;11.77;;;;;;;10.88;100.00;100418.88;5071728;28;20098;-73
2022/04/25 04:50:15;;;;;;;24.08;12.18;;;;;;;10.88;100.00;100420.84;5060424;28;20049;-73
2022/04/25 04:52:46;;;;;;;22.80;12.60;;;;;;;10.89;100.00;100431.53;5059142;28;20614;-73
2022/04/25 04:55:12;;;;;;;23.92;12.45;;;;;;;10.92;100.00;100432.69;5066194;28;20059;-74
2022/04/25 04:57:40;;;;;;;23.90;12.55;;;;;;;10.93;100.00;100435.03;5074408;28;20135;-74
2022/04/25 05:00:09;;;;;;;24.33;12.98;;;;;;;10.96;100.00;100444.50;5057922;28;20040;-73
2022/04/25 05:02:36;;;;;;;20.98;11.70;;;;;;;10.97;100.00;100446.88;5064975;28;20509;-73
2022/04/25 05:05:04;;;;;;;28.30;12.50;;;;;;;10.90;100.00;100457.22;5066822;28;20105;-74
2022/04/25 05:07:30;;;;;;;25.08;12.82;;;;;;;10.99;100.00;100457.53;5070579;28;20109;-73
2022/04/25 05:09:57;;;;;;;23.27;12.55;;;;;;;10.98;100.00;100467.84;5065520;28;20127;-76
2022/04/25 05:12:27;;;;;;;22.58;11.40;;;;;;;11.02;100.00;100465.84;5069308;28;20047;-73
2022/04/25 05:14:57;;;;;;;20.38;10.02;;;;;;;10.99;100.00;100474.16;5072975;28;20051;-74
2022/04/25 05:17:24;;;;;;;21.35;11.30;;;;;;;10.97;100.00;100482.09;5063668;28;20084;-74
2022/04/25 05:19:50;;;;;;;20.25;10.50;;;;;;;10.92;100.00;100482.50;5074292;28;20107;-73
2022/04/25 05:22:17;;;;;;;20.67;10.15;;;;;;;10.94;100.00;100485.66;5071314;28;20128;-73
2022/04/25 05:24:43;;;;;;;17.92;9.63;;;;;;;10.85;100.00;100477.81;5066989;28;20571;-73
2022/04/25 05:27:11;;;;;;;18.80;9.77;;;;;;;10.83;100.00;100484.94;5069052;28;20048;-73
2022/04/25 05:29:38;;;;;;;18.45;8.73;;;;;;;10.79;100.00;100479.41;5068215;28;20090;-73
2022/04/25 05:32:05;;;;;;;15.93;7.95;;;;;;;10.77;100.00;100484.59;5064505;28;20052;-73
2022/04/25 05:34:37;;;;;;;15.75;7.13;;;;;;;10.79;100.00;100478.63;5065724;28;20040;-73
2022/04/25 05:37:04;;;;;;;17.42;8.57;;;;;;;10.80;100.00;100491.28;5068687;28;20045;-74
2022/04/25 05:39:32;;;;;;;16.77;8.55;;;;;;;10.73;100.00;100494.88;5064175;28;20136;-74
2022/04/25 05:42:02;;;;;;;17.92;8.52;;;;;;;10.79;100.00;100493.25;5065817;28;20654;-75
2022/04/25 05:44:29;;;;;;;16.73;8.18;;;;;;;10.76;100.00;100499.59;5068910;28;20052;-75
2022/04/25 05:46:56;;;;;;;17.73;8.50;;;;;;;10.80;100.00;100502.34;5098511;28;20060;-76
2022/04/25 05:52:08;;;;;;;18.30;8.57;;;;;;;10.79;100.00;100515.41;5062966;28;20059;-76
2022/04/25 05:54:36;;;;;;;16.27;8.60;;;;;;;10.76;100.00;100518.97;5063484;28;20424;-76
2022/04/25 05:57:04;;;;;;;15.90;8.02;;;;;;;10.75;100.00;100524.91;5066993;28;20056;-76
2022/04/25 05:59:31;;;;;;;16.10;8.23;;;;;;;10.72;100.00;100514.63;5070351;28;20048;-75
2022/04/25 06:01:58;;;;;;;19.40;9.32;;;;;;;10.73;100.00;100522.53;5063282;28;20074;-75
2022/04/25 06:04:25;;;;;;;17.33;8.15;;;;;;;10.76;100.00;100532.03;5068893;28;20048;-75
2022/04/25 06:06:55;;;;;;;14.95;7.72;;;;;;;10.73;100.00;100522.53;5060776;28;20048;-76
2022/04/25 06:09:25;;;;;;;17.10;8.52;;;;;;;10.74;100.00;100524.13;5077754;28;20179;-76
2022/04/25 06:11:53;;;;;;;17.08;9.25;;;;;;;10.75;100.00;100522.13;5081913;28;20053;-76
2022/04/25 06:14:21;;;;;;;16.35;7.78;;;;;;;10.76;100.00;100535.56;5065959;28;20591;-76
2022/04/25 06:16:48;;;;;;;17.70;8.65;;;;;;;10.74;100.00;100532.44;5094131;28;20052;-76
2022/04/25 06:19:15;;;;;;;18.38;7.95;;;;;;;10.76;100.00;100540.34;5066280;28;20210;-76
2022/04/25 06:21:42;;;;;;;15.90;7.25;;;;;;;10.69;100.00;100532.84;5060688;28;20131;-78
2022/04/25 06:24:09;;;;;;;14.68;7.25;;;;;;;10.72;100.00;100539.53;5061043;28;20132;-78
2022/04/25 06:26:36;;;;;;;16.70;8.15;;;;;;;10.70;100.00;100541.94;5065123;28;20044;-78
2022/04/25 06:29:03;;;;;;;14.85;6.95;;;;;;;10.69;100.00;100534.84;5067782;28;20505;-78
2022/04/25 06:31:30;;;;;;;16.65;7.68;;;;;;;10.71;100.00;100547.06;5068543;28;20055;-76
2022/04/25 06:33:57;;;;;;;15.80;8.15;;;;;;;10.70;100.00;100541.94;5063619;28;20056;-78
2022/04/25 06:36:25;;;;;;;15.75;7.53;;;;;;;10.75;100.00;100541.50;5070929;28;20054;-78
2022/04/25 06:38:52;;;;;;;21.05;7.63;;;;;;;10.78;100.00;100537.94;5064658;28;20524;-79
2022/04/25 06:41:21;;;;;;;13.38;6.47;;;;;;;10.83;100.00;100538.31;5057882;28;20053;-74
2022/04/25 06:43:48;;;;;;;16.70;7.95;;;;;;;10.89;100.00;100535.91;5068556;28;20747;-75
2022/04/25 06:46:14;;;;;;;18.15;7.80;;;;;;;10.98;100.00;100548.13;5068367;28;20166;-75
2022/04/25 06:49:19;;;;;;;18.50;8.18;;;;;;;11.03;100.00;100546.91;5066768;28;20049;-74
2022/04/25 06:51:28;;;;;;;19.90;8.20;;;;;;;11.09;100.00;100546.09;5069634;28;20143;-75
2022/04/25 06:53:54;;;;;;;17.90;8.93;;;;;;;11.14;100.00;100553.19;5068601;28;20138;-74
2022/04/25 06:56:21;;;;;;;17.27;7.72;;;;;;;11.13;100.00;100546.06;5065542;28;20055;-74
2022/04/25 06:58:47;;;;;;;14.95;7.47;;;;;;;11.13;100.00;100557.91;5073790;28;20139;-74
2022/04/25 07:01:14;;;;;;;14.85;7.22;;;;;;;11.14;100.00;100555.94;5072401;28;20098;-75
2022/04/25 07:03:41;;;;;;;17.02;8.63;;;;;;;11.18;100.00;100567.78;5065499;28;20052;-74
2022/04/25 07:06:08;;;;;;;20.08;8.65;;;;;;;11.19;100.00;100564.63;5065147;28;20139;-72
2022/04/25 07:08:34;;;;;;;18.65;8.77;;;;;;;11.24;100.00;100568.94;5066938;28;20469;-72
2022/04/25 07:11:01;;;;;;;17.05;7.50;;;;;;;11.31;100.00;100568.91;5062941;28;20052;-74
2022/04/25 07:13:28;;;;;;;18.95;9.38;;;;;;;11.37;100.00;100564.50;5066727;28;20052;-76
2022/04/25 07:16:00;;;;;;;18.13;9.55;;;;;;;11.43;100.00;100573.94;5074796;28;20059;-77
2022/04/25 07:18:29;;;;;;;17.77;8.57;;;;;;;11.42;100.00;100572.38;5091974;28;20053;-74
2022/04/25 07:20:56;;;;;;;19.25;8.75;;;;;;;11.43;100.00;100585.03;5061360;28;20052;-74
2022/04/25 07:28:53;;;;;;;18.50;9.70;;;;;;;11.42;100.00;100567.63;5063386;28;20059;-73
2022/04/25 07:31:20;;;;;;;20.73;9.25;;;;;;;11.43;100.00;100576.72;5074118;28;20893;-77
2022/04/25 07:33:47;;;;;;;18.90;9.13;;;;;;;11.42;100.00;100583.47;5066366;28;20071;-76
2022/04/25 07:36:15;;;;;;;20.45;9.82;;;;;;;11.39;100.00;100585.06;5066829;28;20052;-74
2022/04/25 07:38:45;;;;;;;20.20;10.07;;;;;;;11.35;100.00;100584.31;5066635;28;20079;-73
2022/04/25 07:41:13;;;;;;;19.42;9.18;;;;;;;11.30;100.00;100584.72;5062751;28;20155;-76
2022/04/25 07:43:40;;;;;;;21.08;11.65;;;;;;;11.26;100.00;100580.38;5069533;28;20059;-74
2022/04/25 07:46:07;;;;;;;23.58;11.70;;;;;;;11.29;100.00;100585.91;5067168;28;20120;-73
2022/04/25 07:48:34;;;;;;;26.38;13.25;;;;;;;11.26;100.00;100592.25;5072764;28;20117;-73
2022/04/25 07:51:02;;;;;;;21.58;10.85;;;;;;;11.23;100.00;100593.06;5061792;28;20059;-73
2022/04/25 07:53:30;;;;;;;24.27;13.27;;;;;;;11.25;100.00;100587.13;5063807;28;20056;-74
2022/04/25 07:55:57;;;;;;;23.55;13.05;;;;;;;11.26;100.00;100599.78;5061913;28;20045;-73
2022/04/25 07:58:24;;;;;;;22.75;11.55;;;;;;;11.28;100.00;100598.19;5077631;28;20084;-76
2022/04/25 08:00:51;;;;;;;24.77;13.82;;;;;;;11.30;100.00;100612.41;5072252;28;20054;-73
2022/04/25 08:03:24;;;;;;;25.42;14.20;;;;;;;11.23;100.00;100609.69;5078776;28;20052;-74
2022/04/25 08:05:51;;;;;;;24.95;14.90;;;;;;;11.24;100.00;100616.03;5095154;28;20056;-74
2022/04/25 08:08:18;;;;;;;25.25;13.13;;;;;;;11.15;100.00;100612.91;5070531;28;20121;-74
2022/04/25 08:10:44;;;;;;;23.75;12.88;;;;;;;11.18;100.00;100601.81;5068936;28;20066;-74
2022/04/25 08:18:42;;;;;;;23.73;13.98;;;;;;;11.16;100.00;100620.81;5070100;28;20052;-75
2022/04/25 08:21:10;;;;;;;25.23;14.05;;;;;;;11.15;100.00;100630.31;5069552;28;20055;-74
2022/04/25 08:23:36;;;;;;;25.17;14.23;;;;;;;11.18;100.00;100626.75;5077851;28;20893;-75
2022/04/25 08:26:03;;;;;;;25.30;13.38;;;;;;;11.15;100.00;100629.50;5069821;28;20076;-74
2022/04/25 08:28:30;;;;;;;24.33;12.55;;;;;;;11.10;100.00;100629.94;5071944;28;20143;-75
2022/04/25 08:31:16;;;;;;;31.58;13.73;;;;;;;11.16;100.00;100623.56;5075193;28;20047;-73
2022/04/25 08:33:46;;;;;;;25.60;13.57;;;;;;;11.21;100.00;100641.75;5071246;28;20078;-74
2022/04/25 08:36:13;;;;;;;26.38;13.73;;;;;;;11.22;100.00;100646.88;5072738;28;20052;-74
2022/04/25 08:38:43;;;;;;;27.90;14.77;;;;;;;11.23;100.00;100644.88;5068759;28;20048;-74
2022/04/25 08:41:12;;;;;;;30.13;14.85;;;;;;;11.30;100.00;100656.72;5066582;28;20055;-75
2022/04/25 08:43:39;;;;;;;28.98;16.77;;;;;;;11.32;100.00;100654.34;5068353;28;20059;-73
2022/04/25 08:46:10;;;;;;;26.58;14.77;;;;;;;11.35;100.00;100659.09;5070875;28;20131;-74
2022/04/25 08:48:39;;;;;;;26.80;16.05;;;;;;;11.37;100.00;100659.47;5072800;28;20048;-73
2022/04/25 08:51:07;;;;;;;28.13;15.85;;;;;;;11.42;100.00;100661.03;5062209;28;20051;-71
2022/04/25 08:53:34;;;;;;;27.60;15.18;;;;;;;11.42;100.00;100677.66;5068388;28;20759;-76
2022/04/25 08:56:03;;;;;;;26.27;14.90;;;;;;;11.41;100.00;100674.06;5074065;28;20052;-73
2022/04/25 08:58:36;;;;;;;27.10;15.07;;;;;;;11.38;100.00;100677.69;5080284;28;20129;-73
2022/04/25 09:01:03;;;;;;;28.17;16.05;;;;;;;11.40;100.00;100680.81;5067168;28;20056;-71
2022/04/25 09:03:29;;;;;;;28.15;15.55;;;;;;;11.40;100.00;100683.59;5065600;28;20570;-73
2022/04/25 09:05:58;;;;;;;31.40;16.98;;;;;;;11.41;100.00;100681.63;5069245;28;20068;-72
2022/04/25 09:08:24;;;;;;;30.83;17.13;;;;;;;11.43;100.00;100687.53;5071543;28;20047;-72
2022/04/25 09:12:09;;;;;;;29.15;16.20;;;;;;;11.45;100.00;100693.47;5067392;28;20090;-72
2022/04/25 09:13:38;;;;;;;28.35;15.93;;;;;;;11.44;100.00;100689.91;5067443;28;20051;-73
2022/04/25 09:16:16;;;;;;;28.13;15.07;;;;;;;11.50;100.00;100699.38;5072768;28;20146;-73
2022/04/25 09:18:43;;;;;;;30.52;17.17;;;;;;;11.57;100.00;100702.09;5071070;28;20477;-74
2022/04/25 09:21:14;;;;;;;29.70;17.48;;;;;;;11.59;100.00;100705.28;5064189;28;20135;-75
2022/04/25 09:23:41;;;;;;;26.67;14.75;;;;;;;11.60;100.00;100704.06;5068747;28;21708;-73
2022/04/25 09:26:15;;;;;;;27.48;15.40;;;;;;;11.59;100.00;100705.28;5067266;28;20052;-76
2022/04/25 09:28:54;;;;;;;29.55;15.25;;;;;;;11.63;100.00;100705.28;5063123;28;20113;-74
2022/04/25 09:31:22;;;;;;;29.23;16.25;;;;;;;11.66;100.00;100701.69;5064125;28;20068;-73
2022/04/25 09:33:49;;;;;;;27.95;15.38;;;;;;;11.66;100.00;100704.47;5064157;28;20056;-74
2022/04/25 09:36:15;;;;;;;26.42;14.73;;;;;;;11.65;100.00;100713.97;5057534;28;20060;-74
2022/04/25 09:38:43;;;;;;;29.92;16.48;;;;;;;11.65;100.00;100719.53;5056941;28;20130;-74
2022/04/25 09:41:12;;;;;;;31.98;16.30;;;;;;;11.60;100.00;100712.38;5067834;28;20159;-73
2022/04/25 09:43:40;;;;;;;31.13;14.73;;;;;;;11.55;100.00;100712.03;5062474;28;20087;-75
2022/04/25 09:46:16;;;;;;;26.40;14.43;;;;;;;11.55;100.00;100714.78;5064109;28;20508;-73
2022/04/25 09:49:03;;;;;;;26.75;14.50;;;;;;;11.51;100.00;100714.78;5075115;28;20047;-73
2022/04/25 09:51:30;;;;;;;27.50;14.73;;;;;;;11.49;100.00;100710.84;5069420;28;20134;-77
2022/04/25 09:53:57;;;;;;;29.15;15.57;;;;;;;11.56;100.00;100711.63;5076186;28;20139;-75
2022/04/25 09:56:30;;;;;;;27.25;14.70;;;;;;;11.59;100.00;100712.78;5061726;28;20127;-74
2022/04/25 09:59:01;;;;;;;28.77;15.70;;;;;;;11.61;100.00;100715.97;5070237;28;20062;-73
2022/04/25 10:01:29;;;;;;;28.30;15.40;;;;;;;11.62;100.00;100714.78;5050535;28;20044;-73
2022/04/25 10:03:57;;;;;;;24.17;13.15;;;;;;;11.70;100.00;100708.78;5048700;28;20059;-72
2022/04/25 10:06:24;;;;;;;29.98;16.13;;;;;;;11.83;100.00;100711.88;5051550;28;20072;-73
2022/04/25 10:08:52;;;;;;;29.65;16.88;;;;;;;11.99;100.00;100718.53;5048569;28;20044;-75
2022/04/25 10:11:20;;;;;;;32.05;16.98;;;;;;;12.09;100.00;100716.88;5048044;28;20508;-74
2022/04/25 10:13:47;;;;;;;33.20;16.95;;;;;;;12.16;100.00;100711.25;5050724;28;20121;-73
2022/04/25 10:16:19;;;;;;;28.83;16.70;;;;;;;12.29;100.00;100729.78;5050922;28;20047;-72
2022/04/25 10:18:46;;;;;;;29.77;17.15;;;;;;;12.35;100.00;100721.78;5047524;28;20056;-74
2022/04/25 10:21:14;;;;;;;30.27;17.42;;;;;;;12.44;100.00;100731.25;5052319;28;20053;-74
2022/04/25 10:23:41;;;;;;;28.45;15.40;;;;;;;12.50;100.00;100720.50;5068699;28;20077;-73
2022/04/25 10:26:08;;;;;;;22.25;12.13;;;;;;;12.59;100.00;100729.16;5064996;28;20072;-74
2022/04/25 10:28:52;;;;;;;30.23;16.98;;;;;;;12.75;100.00;100732.94;5064081;28;20055;-73
2022/04/25 10:31:23;;;;;;;29.13;16.70;;;;;;;12.87;100.00;100732.41;5068366;28;20131;-76
2022/04/25 10:33:54;;;;;;;32.85;16.55;;;;;;;13.02;100.00;100735.84;5058542;28;20045;-73
2022/04/25 10:36:39;;;;;;;30.15;16.60;;;;;;;13.20;100.00;100736.47;5051003;28;20055;-76
2022/04/25 10:39:20;;;;;;;31.20;14.90;;;;;;;13.39;100.00;100733.06;5055678;28;20052;-74
2022/04/25 10:44:37;;;;;;;34.15;20.80;;;;;;;13.83;100.00;100732.88;5055459;28;20107;-75
2022/04/25 10:47:05;;;;;;;31.27;17.77;;;;;;;14.03;100.00;100739.34;5061714;28;20417;-74
2022/04/25 10:49:37;;;;;;;29.25;16.75;;;;;;;14.25;100.00;100734.25;5062931;28;20071;-74
2022/04/25 10:52:08;;;;;;;35.45;19.38;;;;;;;14.53;100.00;100733.78;5063661;28;20049;-77
2022/04/25 10:54:49;;;;;;;28.48;15.43;;;;;;;14.70;100.00;100730.72;5065888;28;20080;-77
2022/04/25 10:57:17;;;;;;;28.00;15.73;;;;;;;14.81;100.00;100736.06;5061810;28;20159;-73
2022/04/25 10:59:44;;;;;;;29.73;17.73;;;;;;;14.93;100.00;100727.91;5060448;28;20044;-77
2022/04/25 11:02:27;;;;;;;30.58;17.23;;;;;;;14.90;100.00;100733.53;5062925;28;20059;-74
2022/04/25 11:05:09;;;;;;;27.88;15.77;;;;;;;15.05;100.00;100738.41;5062084;28;20440;-73
2022/04/25 11:07:40;;;;;;;29.73;15.23;;;;;;;15.26;100.00;100734.44;5062806;28;20048;-73
2022/04/25 11:10:09;;;;;;;30.20;16.33;;;;;;;15.35;99.53;100740.22;5061001;28;20053;-73
2022/04/25 11:12:58;;;;;;;28.50;17.75;;;;;;;15.56;98.69;100739.81;5061158;28;20048;-71
2022/04/25 11:15:48;;;;;;;31.15;17.45;;;;;;;15.89;97.83;100729.53;5065319;28;20058;-72
2022/04/25 11:18:34;;;;;;;27.88;16.48;;;;;;;16.15;95.08;100731.31;5061593;28;20052;-70
2022/04/25 11:21:07;;;;;;;27.55;16.70;;;;;;;16.46;92.20;100744.53;5061432;28;20428;-72
2022/04/25 11:23:46;;;;;;;31.30;17.40;;;;;;;16.60;89.90;100733.00;5061155;28;20527;-73
2022/04/25 11:26:25;;;;;;;27.92;16.75;;;;;;;16.92;90.92;100734.97;5075410;28;20060;-74
2022/04/25 11:29:04;;;;;;;30.55;16.60;;;;;;;17.12;87.27;100744.03;5069623;28;20597;-74
2022/04/25 11:31:32;;;;;;;28.05;16.17;;;;;;;17.26;86.29;100746.41;5067749;28;20106;-70
2022/04/25 11:34:03;;;;;;;25.63;13.70;;;;;;;17.26;83.35;100738.03;5070951;28;20550;-73
2022/04/25 11:36:35;;;;;;;24.25;14.15;;;;;;;17.26;80.79;100738.03;5070040;28;20060;-74